Walkerton, Indiana
Current Conditions -  °F | °C
As of 3:15 AM on Friday 24 Oct 2014 (Local Time) from KOXI Reporting Station
Overcast Overcast  
Wind Chill: 49°   Ceiling: 4200
Heat Index: 49°   Visibility: 10mi
Dew Point: 41°   Wind: 3mph
Humidity: 74%   Direction: 190°S
Pressure: 30.07"   Gusts: NA
Location:  41.47°N, 86.48°W
Report Text: KOXI 240715Z AUTO 19003KT 10SM BKN042 BKN048 OVC065 10/05 A3007 RMK AO1 T00970052
Loading
Personal Weather Stations






























Interactive Weather Map
Tropical Storm Tracking
New forecast layout! Learn more

10-Day Weather Forecast

Advertisements
Track Severe Weather on mobile